createdAt,value
2022-09-23T00:01:09.639Z,65.90
2022-09-23T00:03:38.866Z,65.62
2022-09-23T00:06:08.543Z,65.84
2022-09-23T00:08:35.210Z,65.55
2022-09-23T00:11:10.551Z,65.81
2022-09-23T00:13:39.179Z,66.50
2022-09-23T00:16:08.092Z,66.35
2022-09-23T00:18:34.648Z,66.14
2022-09-23T00:21:10.872Z,66.65
2022-09-23T00:23:38.488Z,67.01
2022-09-23T00:26:07.619Z,67.18
2022-09-23T00:28:35.154Z,67.49
2022-09-23T00:31:06.924Z,67.83
2022-09-23T00:33:33.531Z,68.59
2022-09-23T00:36:01.930Z,69.07
2022-09-23T00:38:28.578Z,69.69
2022-09-23T00:40:55.198Z,69.93
2022-09-23T00:43:40.932Z,70.15
2022-09-23T00:46:14.286Z,70.40
2022-09-23T00:48:43.956Z,68.92
2022-09-23T00:51:17.883Z,69.06
2022-09-23T00:53:47.004Z,68.42
2022-09-23T00:56:14.326Z,67.83
2022-09-23T00:58:43.287Z,68.05
2022-09-23T01:01:11.943Z,67.73
2022-09-23T01:03:38.534Z,67.42
2022-09-23T01:06:05.624Z,67.58
2022-09-23T01:08:32.292Z,68.00
2022-09-23T01:11:10.120Z,68.74
2022-09-23T01:13:36.646Z,67.88
2022-09-23T01:16:31.410Z,68.18
2022-09-23T01:19:32.234Z,68.85
2022-09-23T01:22:05.424Z,69.13
2022-09-23T01:24:46.094Z,69.48
2022-09-23T01:27:41.560Z,69.29
2022-09-23T01:30:11.836Z,69.43
2022-09-23T01:33:01.379Z,68.96
2022-09-23T01:35:37.725Z,69.23
2022-09-23T01:38:13.070Z,69.01
2022-09-23T01:41:09.900Z,69.34
2022-09-23T01:43:58.063Z,69.73
2022-09-23T01:46:29.810Z,69.37
2022-09-23T01:49:22.116Z,69.11
2022-09-23T01:52:01.534Z,69.04
2022-09-23T01:54:42.313Z,68.86
2022-09-23T01:57:18.872Z,68.83
2022-09-23T01:59:55.856Z,68.37
2022-09-23T02:02:35.450Z,68.36
2022-09-23T02:05:18.330Z,68.27
2022-09-23T02:07:58.021Z,67.90
2022-09-23T02:10:31.041Z,68.40
2022-09-23T02:13:05.479Z,67.97
2022-09-23T02:15:36.899Z,68.15
2022-09-23T02:18:17.911Z,68.59
2022-09-23T02:20:44.976Z,68.27
2022-09-23T02:23:23.426Z,68.55
2022-09-23T02:26:08.824Z,68.28
2022-09-23T02:29:08.348Z,68.08
2022-09-23T02:31:45.769Z,67.71
2022-09-23T02:34:42.560Z,67.35
2022-09-23T02:37:37.178Z,67.33
2022-09-23T02:40:26.289Z,67.93
2022-09-23T02:43:19.789Z,67.61
2022-09-23T02:45:47.439Z,67.57
2022-09-23T02:48:18.724Z,67.18
2022-09-23T02:50:47.760Z,67.00
2022-09-23T02:53:16.174Z,67.41
2022-09-23T02:55:43.526Z,67.67
2022-09-23T02:58:13.840Z,67.59
2022-09-23T03:00:59.032Z,68.01
2022-09-23T03:03:45.148Z,68.06
2022-09-23T03:06:39.782Z,67.37
2022-09-23T03:09:13.272Z,67.73
2022-09-23T03:11:48.158Z,68.01
2022-09-23T03:14:25.592Z,68.17
2022-09-23T03:16:52.107Z,67.76
2022-09-23T03:19:23.545Z,67.36
2022-09-23T03:22:08.160Z,67.85
2022-09-23T03:24:38.135Z,67.95
2022-09-23T03:27:13.706Z,68.16
2022-09-23T03:29:45.609Z,67.79
2022-09-23T03:32:14.612Z,67.62
2022-09-23T03:34:43.859Z,68.29
2022-09-23T03:37:19.868Z,68.46
2022-09-23T03:40:15.003Z,68.68
2022-09-23T03:42:42.324Z,68.31
2022-09-23T03:45:14.623Z,68.70
2022-09-23T03:47:42.280Z,68.30
2022-09-23T03:50:09.283Z,67.92
2022-09-23T03:52:35.818Z,68.10
2022-09-23T03:55:02.408Z,68.14
2022-09-23T03:57:28.944Z,68.04
2022-09-23T03:59:55.509Z,67.80
2022-09-23T04:02:22.128Z,68.21
2022-09-23T04:04:48.844Z,68.30
2022-09-23T04:07:15.663Z,68.27
2022-09-23T04:09:42.299Z,68.81
2022-09-23T04:12:13.435Z,68.43
2022-09-23T04:14:40.062Z,68.70
2022-09-23T04:17:06.620Z,68.75
2022-09-23T04:19:33.177Z,68.50
2022-09-23T04:21:59.874Z,68.90
2022-09-23T04:24:26.554Z,68.66
2022-09-23T04:26:55.257Z,68.50
2022-09-23T04:29:22.583Z,68.44
2022-09-23T04:31:50.046Z,69.03
2022-09-23T04:34:17.698Z,69.09
2022-09-23T04:36:45.332Z,69.29
2022-09-23T04:39:12.566Z,69.59
2022-09-23T04:41:39.084Z,69.67
2022-09-23T04:44:05.651Z,69.60
2022-09-23T04:46:32.407Z,69.75
2022-09-23T04:48:58.995Z,69.61
2022-09-23T04:51:26.940Z,69.61
2022-09-23T04:53:55.052Z,69.40
2022-09-23T04:56:26.821Z,69.41
2022-09-23T04:58:54.263Z,69.59
2022-09-23T05:01:27.118Z,69.45
2022-09-23T05:04:01.556Z,69.59
2022-09-23T05:06:29.697Z,69.71
2022-09-23T05:08:58.278Z,69.37
2022-09-23T05:11:25.750Z,68.96
2022-09-23T05:13:54.093Z,68.63
2022-09-23T05:16:25.615Z,68.37
2022-09-23T05:18:52.718Z,67.60
2022-09-23T05:21:21.845Z,66.91
2022-09-23T05:23:58.799Z,67.04
2022-09-23T05:26:28.117Z,66.15
2022-09-23T05:28:55.178Z,65.58
2022-09-23T05:31:24.665Z,65.04
2022-09-23T05:33:53.494Z,65.09
2022-09-23T05:36:22.093Z,64.24
2022-09-23T05:38:50.065Z,63.62
2022-09-23T05:41:17.794Z,63.47
2022-09-23T05:43:44.743Z,63.09
2022-09-23T05:46:23.372Z,62.88
2022-09-23T05:48:50.436Z,62.87
2022-09-23T05:51:20.080Z,62.19
2022-09-23T05:53:47.856Z,62.37
2022-09-23T05:56:16.708Z,61.42
2022-09-23T05:58:44.103Z,61.60
2022-09-23T06:01:12.869Z,60.82
2022-09-23T06:03:40.030Z,60.92
2022-09-23T06:06:11.964Z,60.56
2022-09-23T06:08:38.876Z,60.56
2022-09-23T06:11:07.667Z,59.94
2022-09-23T06:13:39.005Z,59.78
2022-09-23T06:16:08.040Z,59.60
2022-09-23T06:18:35.541Z,59.35
2022-09-23T06:21:03.779Z,58.68
2022-09-23T06:23:31.306Z,58.82
2022-09-23T06:26:02.475Z,58.39
2022-09-23T06:28:33.863Z,56.92
2022-09-23T06:31:03.247Z,57.81
2022-09-23T06:33:36.812Z,57.90
2022-09-23T06:36:06.347Z,57.32
2022-09-23T06:38:36.262Z,57.51
2022-09-23T06:41:03.485Z,57.70
2022-09-23T06:43:30.880Z,57.23
2022-09-23T06:46:00.003Z,57.17
2022-09-23T06:48:27.816Z,57.05
2022-09-23T06:50:58.402Z,56.47
2022-09-23T06:53:25.545Z,56.28
2022-09-23T06:56:03.768Z,55.42
2022-09-23T06:58:31.952Z,55.75
2022-09-23T07:01:03.131Z,55.93
2022-09-23T07:03:29.842Z,55.60
2022-09-23T07:05:56.609Z,55.64
2022-09-23T07:08:24.883Z,55.58
2022-09-23T07:10:53.067Z,54.74
2022-09-23T07:13:19.650Z,55.18
2022-09-23T07:15:53.796Z,54.55
2022-09-23T07:18:23.829Z,53.58
2022-09-23T07:20:50.935Z,54.78
2022-09-23T07:23:17.948Z,54.58
2022-09-23T07:25:46.768Z,54.00
2022-09-23T07:28:13.692Z,53.54
2022-09-23T07:30:49.172Z,54.23
2022-09-23T07:33:30.830Z,53.30
2022-09-23T07:35:58.582Z,53.60
2022-09-23T07:38:30.366Z,53.65
2022-09-23T07:41:11.134Z,52.68
2022-09-23T07:43:37.875Z,53.26
2022-09-23T07:46:08.728Z,52.72
2022-09-23T07:48:36.345Z,52.99
2022-09-23T07:51:29.060Z,52.82
2022-09-23T07:53:59.109Z,53.13
2022-09-23T07:56:28.006Z,52.55
2022-09-23T07:59:00.805Z,52.49
2022-09-23T08:01:48.706Z,52.62
2022-09-23T08:04:17.862Z,52.30
2022-09-23T08:06:47.533Z,52.25
2022-09-23T08:09:16.460Z,52.70
2022-09-23T08:11:42.978Z,52.11
2022-09-23T08:14:12.691Z,52.20
2022-09-23T08:16:40.154Z,52.66
2022-09-23T08:19:08.037Z,52.97
2022-09-23T08:21:35.256Z,51.94
2022-09-23T08:24:02.112Z,52.13
2022-09-23T08:26:28.839Z,52.04
2022-09-23T08:28:56.498Z,51.05
2022-09-23T08:31:23.684Z,50.49
2022-09-23T08:33:58.123Z,50.67
2022-09-23T08:36:25.810Z,50.73
2022-09-23T08:38:52.590Z,50.36
2022-09-23T08:41:37.732Z,49.33
2022-09-23T08:44:27.222Z,48.78
2022-09-23T08:47:04.953Z,49.16
2022-09-23T08:49:36.792Z,49.30
2022-09-23T08:52:40.275Z,48.57
2022-09-23T08:55:12.843Z,47.84
2022-09-23T08:57:57.510Z,48.21
2022-09-23T09:00:42.099Z,47.57
2022-09-23T09:03:21.335Z,46.02
2022-09-23T09:05:54.226Z,47.61
2022-09-23T09:08:31.338Z,47.01
2022-09-23T09:10:58.362Z,46.60
2022-09-23T09:13:43.252Z,45.56
2022-09-23T09:16:59.065Z,44.63
2022-09-23T09:19:52.573Z,41.00
2022-09-23T09:25:39.847Z,43.25
2022-09-23T09:28:15.954Z,42.95
2022-09-23T09:30:48.341Z,44.17
2022-09-23T09:33:18.942Z,43.98
2022-09-23T09:35:45.862Z,43.82
2022-09-23T09:38:13.088Z,43.85
2022-09-23T09:40:46.204Z,42.73
2022-09-23T09:43:26.048Z,42.28
2022-09-23T09:46:36.382Z,41.85
2022-09-23T09:49:11.878Z,40.91
2022-09-23T09:51:42.627Z,41.14
2022-09-23T09:54:27.365Z,40.11
2022-09-23T09:56:54.944Z,40.56
2022-09-23T09:59:28.728Z,39.10
2022-09-23T10:02:28.121Z,40.12
2022-09-23T10:05:03.584Z,39.47
2022-09-23T10:07:32.410Z,39.02
2022-09-23T10:10:31.882Z,38.17
2022-09-23T10:13:16.172Z,38.30
2022-09-23T10:15:44.936Z,31.86
2022-09-23T10:18:29.062Z,32.45
2022-09-23T10:21:15.844Z,34.91
2022-09-23T10:23:45.570Z,36.87
2022-09-23T10:26:17.446Z,37.27
2022-09-23T10:28:55.650Z,34.67
2022-09-23T10:31:26.365Z,36.96
2022-09-23T10:33:57.239Z,36.75
2022-09-23T10:36:23.753Z,36.09
2022-09-23T10:39:16.652Z,36.04
2022-09-23T10:42:23.126Z,34.44
2022-09-23T10:45:39.855Z,31.99
2022-09-23T10:48:27.531Z,35.17
2022-09-23T10:50:57.553Z,35.27
2022-09-23T10:53:26.059Z,35.37
2022-09-23T10:56:19.707Z,33.89
2022-09-23T10:59:05.133Z,34.06
2022-09-23T11:01:48.197Z,33.05
2022-09-23T11:04:17.425Z,35.48
2022-09-23T11:07:02.369Z,35.04
2022-09-23T11:09:47.617Z,35.07
2022-09-23T11:12:38.431Z,34.68
2022-09-23T11:15:33.585Z,33.10
2022-09-23T11:18:22.117Z,28.92
2022-09-23T11:20:51.573Z,33.58
2022-09-23T11:23:37.075Z,34.04
2022-09-23T11:26:09.726Z,33.93
2022-09-23T11:29:04.121Z,33.60
2022-09-23T11:31:59.752Z,34.21
2022-09-23T11:34:26.524Z,33.43
2022-09-23T11:37:01.274Z,33.22
2022-09-23T11:40:17.757Z,30.19
2022-09-23T11:43:11.189Z,32.43
2022-09-23T11:45:45.165Z,31.98
2022-09-23T11:48:20.491Z,31.96
2022-09-23T11:50:55.198Z,32.30
2022-09-23T11:53:32.376Z,31.85
2022-09-23T11:56:31.761Z,32.96
2022-09-23T11:59:15.942Z,32.89
2022-09-23T12:01:49.776Z,32.82
2022-09-23T12:04:42.974Z,32.70
2022-09-23T12:07:26.039Z,34.87
2022-09-23T12:10:06.683Z,35.03
2022-09-23T12:13:19.258Z,35.71
2022-09-23T12:16:03.301Z,34.11
2022-09-23T12:18:39.294Z,34.71
2022-09-23T12:21:51.912Z,34.40
2022-09-23T12:24:34.865Z,36.41
2022-09-23T12:27:08.067Z,37.40
2022-09-23T12:29:36.441Z,37.01
2022-09-23T12:32:09.977Z,36.80
2022-09-23T12:34:41.874Z,37.44
2022-09-23T12:37:08.445Z,37.08
2022-09-23T12:39:38.590Z,36.99
2022-09-23T12:42:12.253Z,37.08
2022-09-23T12:44:42.077Z,36.30
2022-09-23T12:47:14.374Z,35.90
2022-09-23T12:49:44.354Z,36.60
2022-09-23T12:52:10.814Z,37.30
2022-09-23T12:54:41.512Z,37.74
2022-09-23T12:57:31.940Z,37.20
2022-09-23T13:00:18.664Z,36.63
2022-09-23T13:03:08.127Z,36.74
2022-09-23T13:06:05.988Z,37.10
2022-09-23T13:08:36.710Z,36.77
2022-09-23T13:11:07.161Z,37.10
2022-09-23T13:13:43.443Z,37.12
2022-09-23T13:16:25.196Z,37.01
2022-09-23T13:18:57.151Z,37.05
2022-09-23T13:21:42.184Z,36.61
2022-09-23T13:24:18.583Z,37.81
2022-09-23T13:26:48.273Z,37.52
2022-09-23T13:29:23.992Z,37.41
2022-09-23T13:31:50.848Z,37.75
2022-09-23T13:34:21.456Z,38.23
2022-09-23T13:36:49.032Z,37.78
2022-09-23T13:39:26.911Z,37.40
2022-09-23T13:42:00.890Z,37.68
2022-09-23T13:44:28.565Z,38.25
2022-09-23T13:47:00.550Z,37.97
2022-09-23T13:49:29.859Z,37.95
2022-09-23T13:51:57.314Z,38.42
2022-09-23T13:54:48.851Z,37.61
2022-09-23T13:57:27.468Z,37.68
2022-09-23T13:59:54.079Z,37.97
2022-09-23T14:02:20.735Z,37.43
2022-09-23T14:04:47.418Z,37.76
2022-09-23T14:07:16.831Z,37.58
2022-09-23T14:09:48.307Z,37.92
2022-09-23T14:12:21.837Z,38.11
2022-09-23T14:14:51.664Z,38.29
2022-09-23T14:17:22.832Z,38.37
2022-09-23T14:19:50.379Z,38.27
2022-09-23T14:22:28.169Z,38.17
2022-09-23T14:24:56.365Z,38.15
2022-09-23T14:27:33.789Z,37.46
2022-09-23T14:30:02.733Z,38.10
2022-09-23T14:32:30.413Z,38.14
2022-09-23T14:35:00.125Z,37.99
2022-09-23T14:37:57.102Z,37.95
2022-09-23T14:40:28.731Z,39.30
2022-09-23T14:43:16.522Z,39.42
2022-09-23T14:45:50.518Z,38.75
2022-09-23T14:48:22.327Z,38.90
2022-09-23T14:51:16.199Z,38.12
2022-09-23T14:53:48.735Z,38.42
2022-09-23T14:56:20.455Z,38.43
2022-09-23T14:59:00.714Z,36.89
2022-09-23T15:01:33.289Z,38.71
2022-09-23T15:04:14.882Z,38.94
2022-09-23T15:06:47.702Z,38.43
2022-09-23T15:09:23.565Z,38.70
2022-09-23T15:11:59.208Z,38.09
2022-09-23T15:14:37.649Z,37.95
2022-09-23T15:17:13.424Z,38.41
2022-09-23T15:19:40.500Z,38.53
2022-09-23T15:22:08.894Z,38.42
2022-09-23T15:24:45.558Z,38.60
2022-09-23T15:27:22.501Z,38.47
2022-09-23T15:29:50.123Z,39.02
2022-09-23T15:32:16.853Z,40.19
2022-09-23T15:34:43.351Z,39.72
2022-09-23T15:37:12.514Z,38.31
2022-09-23T15:39:39.039Z,39.76
2022-09-23T15:42:07.380Z,39.83
2022-09-23T15:44:36.317Z,39.72
2022-09-23T15:47:03.002Z,39.87
2022-09-23T15:49:34.541Z,39.96
2022-09-23T15:52:02.090Z,40.41
2022-09-23T15:54:29.505Z,40.81
2022-09-23T15:56:58.636Z,41.02
2022-09-23T15:59:25.157Z,41.18
2022-09-23T16:01:52.835Z,41.11
2022-09-23T16:04:19.609Z,41.40
2022-09-23T16:06:48.091Z,41.62
2022-09-23T16:09:15.694Z,42.66
2022-09-23T16:11:48.384Z,42.66
2022-09-23T16:14:16.881Z,42.82
2022-09-23T16:16:46.140Z,43.28
2022-09-23T16:19:12.773Z,43.47
2022-09-23T16:21:40.923Z,43.69
2022-09-23T16:24:18.644Z,43.23
2022-09-23T16:26:47.148Z,43.59
2022-09-23T16:29:13.778Z,44.63
2022-09-23T16:31:40.528Z,44.96
2022-09-23T16:34:07.207Z,44.67
2022-09-23T16:36:43.037Z,44.83
2022-09-23T16:39:12.590Z,45.18
2022-09-23T16:41:40.147Z,44.66
2022-09-23T16:44:09.349Z,44.60
2022-09-23T16:46:36.423Z,44.71
2022-09-23T16:49:03.233Z,45.09
2022-09-23T16:51:37.951Z,44.70
2022-09-23T16:54:11.412Z,44.22
2022-09-23T16:56:43.922Z,44.17
2022-09-23T16:59:12.319Z,44.48
2022-09-23T17:01:57.450Z,44.76
2022-09-23T17:04:24.027Z,44.65
2022-09-23T17:06:52.528Z,44.33
2022-09-23T17:09:24.856Z,44.36
2022-09-23T17:12:35.090Z,45.12
2022-09-23T17:15:06.207Z,45.09
2022-09-23T17:17:37.524Z,45.74
2022-09-23T17:20:05.871Z,45.50
2022-09-23T17:22:33.796Z,46.15
2022-09-23T17:25:02.906Z,46.19
2022-09-23T17:27:29.933Z,46.62
2022-09-23T17:29:56.421Z,46.46
2022-09-23T17:32:22.983Z,46.99
2022-09-23T17:34:49.501Z,46.56
2022-09-23T17:37:16.044Z,45.17
2022-09-23T17:39:42.637Z,46.41
2022-09-23T17:42:09.659Z,46.45
2022-09-23T17:44:36.299Z,45.74
2022-09-23T17:47:03.759Z,46.17
2022-09-23T17:49:35.310Z,45.78
2022-09-23T17:52:05.669Z,45.67
2022-09-23T17:54:32.688Z,46.29
2022-09-23T17:56:59.867Z,46.70
2022-09-23T17:59:26.751Z,46.48
2022-09-23T18:01:53.992Z,47.55
2022-09-23T18:04:20.983Z,47.93
2022-09-23T18:06:47.678Z,48.41
2022-09-23T18:09:14.799Z,48.61
2022-09-23T18:11:44.261Z,48.45
2022-09-23T18:14:16.461Z,49.56
2022-09-23T18:16:45.592Z,48.76
2022-09-23T18:19:14.447Z,48.87
2022-09-23T18:21:45.502Z,49.47
2022-09-23T18:27:00.013Z,49.65
2022-09-23T18:29:26.722Z,49.90
2022-09-23T18:31:53.420Z,50.19
2022-09-23T18:34:20.414Z,50.09
2022-09-23T18:36:47.090Z,49.74
2022-09-23T18:39:13.657Z,48.97
2022-09-23T18:41:40.960Z,49.03
2022-09-23T18:44:07.562Z,49.05
2022-09-23T18:46:34.153Z,49.63
2022-09-23T18:49:18.999Z,48.83
2022-09-23T18:51:50.968Z,48.87
2022-09-23T18:54:18.379Z,49.24
2022-09-23T18:56:46.336Z,48.80
2022-09-23T18:59:16.642Z,49.20
2022-09-23T19:01:45.742Z,49.38
2022-09-23T19:04:14.154Z,49.49
2022-09-23T19:06:41.111Z,49.59
2022-09-23T19:09:07.735Z,49.61
2022-09-23T19:11:38.083Z,49.66
2022-09-23T19:14:07.385Z,49.68
2022-09-23T19:16:36.029Z,49.89
2022-09-23T19:19:04.616Z,49.62
2022-09-23T19:21:32.512Z,49.89
2022-09-23T19:24:03.418Z,50.12
2022-09-23T19:26:33.625Z,50.73
2022-09-23T19:29:02.178Z,50.50
2022-09-23T19:31:33.279Z,50.68
2022-09-23T19:34:10.070Z,50.92
2022-09-23T19:36:38.880Z,50.44
2022-09-23T19:39:08.803Z,50.88
2022-09-23T19:41:35.519Z,50.88
2022-09-23T19:44:03.526Z,50.98
2022-09-23T19:46:33.893Z,51.10
2022-09-23T19:49:00.836Z,51.44
2022-09-23T19:51:28.337Z,51.17
2022-09-23T19:53:54.930Z,51.89
2022-09-23T19:56:21.793Z,51.19
2022-09-23T19:58:54.299Z,51.58
2022-09-23T20:01:21.613Z,51.89
2022-09-23T20:03:48.983Z,51.62
2022-09-23T20:06:16.845Z,52.08
2022-09-23T20:08:44.520Z,51.12
2022-09-23T20:11:14.306Z,51.50
2022-09-23T20:13:43.945Z,52.13
2022-09-23T20:16:13.361Z,52.00
2022-09-23T20:18:40.705Z,52.36
2022-09-23T20:21:09.742Z,52.54
2022-09-23T20:23:36.405Z,52.65
2022-09-23T20:26:23.128Z,52.77
2022-09-23T20:28:50.222Z,52.63
2022-09-23T20:31:18.519Z,53.08
2022-09-23T20:33:46.165Z,53.19
2022-09-23T20:36:13.461Z,53.11
2022-09-23T20:38:40.570Z,52.82
2022-09-23T20:41:09.364Z,52.82
2022-09-23T20:43:35.848Z,53.41
2022-09-23T20:46:04.115Z,53.41
2022-09-23T20:48:31.150Z,53.44
2022-09-23T20:51:05.248Z,53.42
2022-09-23T20:53:32.614Z,53.73
2022-09-23T20:55:59.742Z,54.12
2022-09-23T20:58:29.188Z,54.17
2022-09-23T21:01:12.368Z,54.01
2022-09-23T21:03:41.628Z,53.80
2022-09-23T21:06:09.218Z,54.58
2022-09-23T21:08:37.272Z,54.44
2022-09-23T21:11:06.424Z,54.11
2022-09-23T21:13:33.562Z,55.09
2022-09-23T21:16:04.933Z,55.02
2022-09-23T21:18:32.110Z,54.77
2022-09-23T21:21:00.125Z,55.39
2022-09-23T21:23:29.858Z,55.08
2022-09-23T21:26:13.907Z,55.03
2022-09-23T21:28:41.762Z,57.19
2022-09-23T21:31:22.472Z,55.69
2022-09-23T21:33:57.095Z,55.55
2022-09-23T21:36:24.680Z,55.46
2022-09-23T21:38:52.517Z,55.87
2022-09-23T21:41:19.776Z,55.79
2022-09-23T21:43:46.421Z,56.17
2022-09-23T21:46:14.908Z,55.77
2022-09-23T21:48:42.862Z,55.88
2022-09-23T21:51:17.522Z,55.98
2022-09-23T21:53:44.679Z,55.43
2022-09-23T21:56:15.695Z,55.82
2022-09-23T21:58:45.791Z,55.96
2022-09-23T22:01:17.043Z,57.21
2022-09-23T22:03:44.959Z,56.46
2022-09-23T22:06:21.501Z,56.55
2022-09-23T22:08:59.010Z,57.21
2022-09-23T22:11:46.658Z,56.90
2022-09-23T22:14:14.376Z,56.86
2022-09-23T22:16:41.838Z,57.70
2022-09-23T22:19:09.819Z,57.50
2022-09-23T22:21:38.136Z,57.80
2022-09-23T22:24:07.463Z,57.96
2022-09-23T22:26:44.484Z,58.38
2022-09-23T22:29:34.358Z,58.24
2022-09-23T22:32:20.702Z,58.46
2022-09-23T22:34:51.453Z,58.21
2022-09-23T22:37:28.727Z,58.67
2022-09-23T22:39:55.254Z,57.69
2022-09-23T22:42:22.457Z,58.27
2022-09-23T22:44:50.136Z,57.96
2022-09-23T22:47:18.026Z,58.65
2022-09-23T22:49:46.338Z,59.06
2022-09-23T22:52:14.122Z,59.54
2022-09-23T22:54:40.667Z,59.01
2022-09-23T22:57:09.054Z,59.88
2022-09-23T22:59:37.403Z,59.92
2022-09-23T23:02:05.049Z,59.30
2022-09-23T23:04:31.798Z,59.97
2022-09-23T23:06:58.896Z,59.71
2022-09-23T23:09:25.957Z,60.06
2022-09-23T23:11:52.474Z,60.21
2022-09-23T23:14:19.401Z,60.36
2022-09-23T23:16:46.718Z,60.01
2022-09-23T23:19:17.250Z,60.38
2022-09-23T23:21:45.442Z,60.00
2022-09-23T23:24:20.426Z,60.12
2022-09-23T23:26:47.602Z,60.72
2022-09-23T23:29:15.984Z,59.84
2022-09-23T23:31:43.296Z,60.95
2022-09-23T23:34:16.270Z,59.90
2022-09-23T23:36:43.917Z,60.32
2022-09-23T23:39:11.086Z,61.22
2022-09-23T23:41:39.517Z,60.62
2022-09-23T23:44:07.739Z,61.35
2022-09-23T23:46:34.638Z,61.57
2022-09-23T23:49:01.237Z,61.54
2022-09-23T23:51:28.223Z,62.54
2022-09-23T23:53:55.203Z,62.64
2022-09-23T23:56:24.471Z,63.32
2022-09-23T23:58:55.577Z,63.25
